Time;durP1;ratioP1;P1;durP2;ratioP2;P2;SDS_P1;SDS_P2;PMS_P1;PMS_P2;Temp;Humidity;BMP_temperature;BMP_pressure;BME280_temperature;BME280_humidity;BME280_pressure;Samples;Min_cycle;Max_cycle;Signal;HPM_P1;HPM_P2
2022/08/16 00:01:49;;;;;;;6.65;5.80;;;22.90;89.40;;;;;;4969574;28;20572;-76
2022/08/16 00:04:16;;;;;;;6.03;5.43;;;22.90;89.30;;;;;;4985117;28;20065;-76
2022/08/16 00:06:42;;;;;;;6.28;5.68;;;22.90;89.30;;;;;;4957027;28;20446;-77
2022/08/16 00:09:12;;;;;;;6.20;5.57;;;22.80;89.20;;;;;;4968937;28;20045;-76
2022/08/16 00:11:39;;;;;;;6.68;5.97;;;22.90;89.20;;;;;;4965991;28;20034;-76
2022/08/16 00:14:09;;;;;;;6.32;5.72;;;22.80;89.30;;;;;;4971535;28;20023;-76
2022/08/16 00:16:34;;;;;;;6.93;5.93;;;22.80;89.30;;;;;;4968712;28;20031;-76
2022/08/16 00:19:00;;;;;;;6.28;5.68;;;22.80;89.30;;;;;;4968730;28;20038;-76
2022/08/16 00:21:26;;;;;;;7.15;6.15;;;22.80;89.90;;;;;;4968449;28;20386;-76
2022/08/16 00:23:55;;;;;;;6.80;6.13;;;22.80;89.30;;;;;;4966663;28;20498;-76
2022/08/16 00:26:20;;;;;;;6.72;5.70;;;22.80;89.40;;;;;;4966215;28;20043;-76
2022/08/16 00:28:46;;;;;;;6.57;5.57;;;22.80;89.40;;;;;;4974957;28;20509;-76
2022/08/16 00:31:12;;;;;;;5.97;5.38;;;22.80;89.40;;;;;;4982976;28;20030;-76
2022/08/16 00:33:38;;;;;;;6.03;5.25;;;22.80;89.30;;;;;;4971716;28;20493;-75
2022/08/16 00:36:04;;;;;;;5.82;5.32;;;22.80;89.30;;;;;;4965810;28;20478;-75
2022/08/16 00:38:29;;;;;;;6.20;5.53;;;22.80;89.30;;;;;;4975090;28;20038;-76
2022/08/16 00:40:56;;;;;;;6.85;5.60;;;22.80;89.30;;;;;;4983200;28;20109;-76
2022/08/16 00:43:28;;;;;;;6.30;5.35;;;22.80;89.40;;;;;;4973950;28;20109;-75
2022/08/16 00:46:13;;;;;;;8.35;5.78;;;22.80;89.40;;;;;;4974637;28;20034;-75
2022/08/16 00:48:40;;;;;;;6.63;5.88;;;22.80;89.40;;;;;;4988486;28;20054;-76
2022/08/16 00:51:07;;;;;;;6.15;5.55;;;22.70;89.40;;;;;;4965574;28;20027;-76
2022/08/16 00:53:33;;;;;;;9.05;6.07;;;22.70;89.40;;;;;;4971711;28;20031;-76
2022/08/16 00:56:04;;;;;;;5.55;5.05;;;22.70;89.50;;;;;;4972994;28;20388;-75
2022/08/16 00:58:31;;;;;;;8.23;6.07;;;22.80;89.60;;;;;;4977240;28;20026;-76
2022/08/16 01:00:57;;;;;;;5.22;4.72;;;22.80;89.60;;;;;;4976036;28;20022;-75
2022/08/16 01:03:26;;;;;;;6.45;5.85;;;22.70;89.50;;;;;;4976562;28;20371;-76
2022/08/16 01:05:52;;;;;;;5.72;5.22;;;22.70;89.50;;;;;;4972419;28;20105;-76
2022/08/16 01:08:21;;;;;;;5.50;4.90;;;22.70;89.50;;;;;;4965448;28;20185;-76
2022/08/16 01:10:47;;;;;;;6.00;5.38;;;22.70;89.50;;;;;;4973844;28;20114;-76
2022/08/16 01:13:18;;;;;;;7.63;5.40;;;22.70;89.50;;;;;;4973324;28;20504;-76
2022/08/16 01:16:07;;;;;;;8.50;5.75;;;22.70;89.50;;;;;;4977480;28;20022;-76
2022/08/16 01:18:45;;;;;;;6.47;5.88;;;22.70;89.50;;;;;;4978873;28;20041;-76
2022/08/16 01:21:36;;;;;;;6.63;5.18;;;22.70;89.60;;;;;;4966102;28;20026;-76
2022/08/16 01:24:28;;;;;;;6.20;5.50;;;22.60;89.50;;;;;;4970418;28;20101;-76
2022/08/16 01:27:18;;;;;;;6.55;5.85;;;22.60;89.60;;;;;;4970208;28;20509;-76
2022/08/16 01:29:53;;;;;;;7.95;5.90;;;22.60;89.60;;;;;;4975489;28;20031;-76
2022/08/16 01:32:19;;;;;;;7.10;5.70;;;22.60;89.60;;;;;;4987190;28;20027;-76
2022/08/16 01:34:45;;;;;;;5.88;5.13;;;22.60;89.60;;;;;;4973117;28;20400;-76
2022/08/16 01:37:12;;;;;;;6.72;5.93;;;22.60;89.50;;;;;;4973302;28;20033;-75
2022/08/16 01:39:39;;;;;;;6.97;6.28;;;22.60;89.70;;;;;;4951611;28;20121;-76
2022/08/16 01:42:07;;;;;;;5.90;5.40;;;22.60;89.70;;;;;;4977245;28;20030;-75
2022/08/16 01:44:34;;;;;;;6.05;5.55;;;22.60;89.70;;;;;;4972707;28;20117;-76
2022/08/16 01:47:00;;;;;;;5.90;5.30;;;22.60;89.70;;;;;;4973493;28;20031;-75
2022/08/16 01:49:32;;;;;;;6.75;5.22;;;22.50;89.70;;;;;;4976784;28;20050;-75
2022/08/16 01:52:02;;;;;;;9.07;5.75;;;22.60;89.70;;;;;;4981467;28;20057;-75
2022/08/16 01:54:28;;;;;;;6.13;5.53;;;22.60;89.80;;;;;;4973983;28;20082;-75
2022/08/16 01:56:55;;;;;;;5.85;5.35;;;22.50;89.80;;;;;;4969992;28;20114;-75
2022/08/16 01:59:22;;;;;;;6.72;5.15;;;22.50;89.70;;;;;;4977262;28;20031;-76
2022/08/16 02:01:50;;;;;;;5.97;5.40;;;22.50;89.70;;;;;;4974157;28;20593;-76
2022/08/16 02:04:21;;;;;;;6.35;5.13;;;22.50;90.20;;;;;;4973675;28;20056;-76
2022/08/16 02:06:47;;;;;;;5.90;5.38;;;22.50;89.70;;;;;;4971022;28;20125;-76
2022/08/16 02:09:14;;;;;;;6.43;5.18;;;22.50;89.70;;;;;;4983477;28;20119;-76
2022/08/16 02:11:45;;;;;;;5.95;5.45;;;22.50;89.70;;;;;;4971108;28;20049;-76
2022/08/16 02:14:12;;;;;;;5.75;5.25;;;22.50;89.70;;;;;;4971395;28;20122;-75
2022/08/16 02:16:39;;;;;;;6.45;5.78;;;22.50;89.80;;;;;;4971297;28;20027;-76
2022/08/16 02:19:05;;;;;;;6.55;5.43;;;22.50;89.80;;;;;;4975826;28;20023;-75
2022/08/16 02:21:31;;;;;;;5.47;4.95;;;22.50;89.80;;;;;;4978478;28;20504;-76
2022/08/16 02:23:58;;;;;;;5.95;5.28;;;22.50;89.80;;;;;;4971035;28;20066;-76
2022/08/16 02:26:24;;;;;;;6.03;5.43;;;22.50;89.80;;;;;;4970640;28;20117;-75
2022/08/16 02:28:51;;;;;;;5.78;5.28;;;22.50;89.80;;;;;;4975891;28;21544;-75
2022/08/16 02:31:17;;;;;;;5.90;5.30;;;22.50;89.80;;;;;;4985265;28;20383;-75
2022/08/16 02:33:44;;;;;;;5.22;4.30;;;22.40;89.80;;;;;;4974657;28;20113;-75
2022/08/16 02:36:11;;;;;;;5.13;4.63;;;22.40;89.80;;;;;;4974699;28;20035;-76
2022/08/16 02:38:39;;;;;;;5.80;5.15;;;22.40;89.80;;;;;;4965383;28;20421;-75
2022/08/16 02:41:06;;;;;;;5.07;4.43;;;22.40;89.80;;;;;;4971026;28;20110;-76
2022/08/16 02:43:33;;;;;;;6.43;4.65;;;22.40;89.80;;;;;;4981405;28;20015;-76
2022/08/16 02:45:59;;;;;;;5.28;4.78;;;22.40;89.90;;;;;;4972768;28;20378;-76
2022/08/16 02:48:25;;;;;;;5.75;5.15;;;22.40;89.90;;;;;;4972539;28;20027;-76
2022/08/16 02:50:51;;;;;;;5.18;4.68;;;22.40;89.80;;;;;;4970671;28;20133;-75
2022/08/16 02:53:17;;;;;;;5.70;5.10;;;22.40;89.80;;;;;;4987394;28;20074;-76
2022/08/16 02:55:43;;;;;;;4.88;4.40;;;22.40;89.90;;;;;;4969879;28;20034;-75
2022/08/16 02:58:10;;;;;;;5.50;4.88;;;22.30;89.80;;;;;;4972936;28;20093;-76
2022/08/16 03:00:37;;;;;;;6.00;4.95;;;22.30;89.80;;;;;;4968644;28;20045;-76
2022/08/16 03:03:03;;;;;;;5.35;4.57;;;22.30;89.80;;;;;;4973696;28;20110;-75
2022/08/16 03:05:31;;;;;;;6.32;4.93;;;22.30;89.90;;;;;;4973119;28;20493;-76
2022/08/16 03:07:57;;;;;;;5.63;4.40;;;22.30;89.90;;;;;;4970646;28;20494;-76
2022/08/16 03:10:23;;;;;;;5.13;4.57;;;22.30;89.90;;;;;;4971383;28;20035;-75
2022/08/16 03:12:49;;;;;;;4.95;4.38;;;22.30;89.90;;;;;;4970657;28;20374;-76
2022/08/16 03:15:16;;;;;;;5.10;4.45;;;22.30;90.00;;;;;;4969549;28;20019;-76
2022/08/16 03:17:43;;;;;;;5.75;4.97;;;22.30;90.00;;;;;;4965152;28;20513;-75
2022/08/16 03:20:13;;;;;;;5.32;4.82;;;22.30;90.00;;;;;;4970988;28;20058;-75
2022/08/16 03:22:40;;;;;;;5.57;4.65;;;22.30;90.00;;;;;;4967362;28;20030;-76
2022/08/16 03:25:09;;;;;;;5.78;4.57;;;22.30;90.00;;;;;;4983511;28;20113;-76
2022/08/16 03:27:37;;;;;;;5.25;4.75;;;22.30;90.00;;;;;;4974214;28;20162;-76
2022/08/16 03:30:18;;;;;;;5.18;4.68;;;22.20;89.90;;;;;;4969234;28;20019;-76
2022/08/16 03:32:46;;;;;;;5.72;4.07;;;22.30;90.00;;;;;;4965577;28;20034;-75
2022/08/16 03:35:12;;;;;;;9.05;4.55;;;22.20;90.00;;;;;;4973175;28;20166;-75
2022/08/16 03:37:42;;;;;;;4.28;3.88;;;22.20;90.00;;;;;;4967698;28;20109;-75
2022/08/16 03:40:09;;;;;;;4.85;4.35;;;22.20;90.30;;;;;;4988263;28;20215;-76
2022/08/16 03:42:34;;;;;;;4.38;3.97;;;22.20;90.00;;;;;;4968569;28;20038;-75
2022/08/16 03:45:00;;;;;;;5.03;4.35;;;22.20;90.00;;;;;;4977246;28;20038;-76
2022/08/16 03:47:28;;;;;;;4.88;3.92;;;22.20;90.00;;;;;;4980531;28;20031;-75
2022/08/16 03:49:54;;;;;;;4.95;4.45;;;22.20;90.00;;;;;;4990047;28;20034;-76
2022/08/16 03:52:21;;;;;;;5.07;4.25;;;22.20;90.00;;;;;;4973082;28;20045;-75
2022/08/16 03:54:48;;;;;;;5.28;4.50;;;22.20;90.00;;;;;;4984420;28;20525;-75
2022/08/16 03:57:14;;;;;;;4.93;4.10;;;22.20;90.00;;;;;;4965561;28;20034;-75
2022/08/16 03:59:40;;;;;;;4.72;4.28;;;22.20;90.00;;;;;;4983042;28;20041;-75
2022/08/16 04:02:06;;;;;;;7.68;5.00;;;22.20;90.00;;;;;;4985791;28;20035;-75
2022/08/16 04:04:34;;;;;;;5.07;4.57;;;22.10;90.00;;;;;;4969684;28;20038;-75
2022/08/16 04:07:05;;;;;;;7.45;5.03;;;22.10;90.00;;;;;;4971666;28;20367;-75
2022/08/16 04:09:32;;;;;;;4.78;4.35;;;22.10;90.00;;;;;;4973807;28;20035;-75
2022/08/16 04:11:58;;;;;;;4.63;4.07;;;22.10;90.00;;;;;;4973690;28;20035;-75
2022/08/16 04:14:25;;;;;;;4.82;4.32;;;22.10;90.10;;;;;;4979212;28;20034;-75
2022/08/16 04:16:51;;;;;;;5.90;4.22;;;22.10;90.00;;;;;;4976166;28;20101;-75
2022/08/16 04:19:17;;;;;;;5.10;4.60;;;22.10;90.00;;;;;;4976394;28;20413;-75
2022/08/16 04:21:42;;;;;;;5.43;4.85;;;22.10;90.10;;;;;;4980115;28;20030;-76
2022/08/16 04:24:08;;;;;;;5.75;4.13;;;22.10;90.00;;;;;;4973815;28;20049;-75
2022/08/16 04:26:34;;;;;;;4.43;4.03;;;22.10;90.00;;;;;;4979298;28;20034;-75
2022/08/16 04:29:01;;;;;;;4.38;3.97;;;22.10;90.10;;;;;;4989526;28;20082;-75
2022/08/16 04:31:27;;;;;;;5.15;4.13;;;22.10;90.10;;;;;;4976934;28;20031;-75
2022/08/16 04:33:58;;;;;;;4.55;3.85;;;22.10;90.10;;;;;;4977973;28;20081;-75
2022/08/16 04:36:26;;;;;;;7.15;4.55;;;22.00;90.10;;;;;;4972103;28;20030;-75
2022/08/16 04:38:52;;;;;;;4.32;3.85;;;22.00;90.10;;;;;;4976649;28;20035;-75
2022/08/16 04:41:18;;;;;;;4.35;3.95;;;22.00;90.10;;;;;;4974058;28;20042;-76
2022/08/16 04:43:44;;;;;;;7.47;4.65;;;22.00;90.10;;;;;;4973269;28;20034;-75
2022/08/16 04:46:15;;;;;;;4.85;4.40;;;22.00;90.20;;;;;;4972385;28;20026;-76
2022/08/16 04:48:42;;;;;;;5.07;4.57;;;22.00;90.10;;;;;;4976419;28;20026;-75
2022/08/16 04:51:08;;;;;;;5.38;4.88;;;22.00;90.10;;;;;;4972423;28;20039;-76
2022/08/16 04:53:35;;;;;;;4.80;4.40;;;22.00;90.10;;;;;;4991215;28;20022;-75
2022/08/16 04:56:01;;;;;;;6.10;5.18;;;22.00;90.10;;;;;;4976385;28;20069;-75
2022/08/16 04:58:27;;;;;;;4.72;4.22;;;22.00;90.10;;;;;;4971988;28;20474;-76
2022/08/16 05:00:53;;;;;;;4.70;4.30;;;22.00;90.20;;;;;;4975455;28;20061;-76
2022/08/16 05:03:20;;;;;;;7.47;5.47;;;22.00;90.30;;;;;;4977963;28;20026;-76
2022/08/16 05:05:47;;;;;;;5.20;4.10;;;22.00;90.20;;;;;;4980363;28;20113;-76
2022/08/16 05:08:12;;;;;;;5.85;5.25;;;22.00;90.20;;;;;;4972539;28;20359;-75
2022/08/16 05:10:39;;;;;;;4.82;4.40;;;22.00;90.20;;;;;;4977901;28;20026;-75
2022/08/16 05:13:06;;;;;;;5.30;4.63;;;22.00;90.30;;;;;;4967210;28;20062;-75
2022/08/16 05:15:32;;;;;;;5.03;4.53;;;22.00;90.20;;;;;;4970581;28;20053;-76
2022/08/16 05:17:58;;;;;;;6.07;5.22;;;22.00;90.20;;;;;;4964295;28;20019;-75
2022/08/16 05:20:25;;;;;;;5.32;4.82;;;22.00;90.20;;;;;;4974273;28;20434;-75
2022/08/16 05:22:51;;;;;;;5.32;4.78;;;22.00;90.20;;;;;;4976198;28;20105;-75
2022/08/16 05:25:17;;;;;;;5.00;3.95;;;21.90;90.20;;;;;;4992348;28;20134;-75
2022/08/16 05:27:43;;;;;;;6.32;4.65;;;21.90;90.20;;;;;;4972599;28;20067;-76
2022/08/16 05:30:13;;;;;;;5.60;5.10;;;22.00;90.20;;;;;;4972914;28;20062;-76
2022/08/16 05:32:41;;;;;;;6.50;4.95;;;22.00;90.20;;;;;;4988844;28;20034;-75
2022/08/16 05:35:09;;;;;;;5.22;4.70;;;21.90;90.10;;;;;;4974663;28;20038;-75
2022/08/16 05:37:37;;;;;;;5.20;4.57;;;22.00;90.20;;;;;;4974120;28;20381;-75
2022/08/16 05:40:09;;;;;;;5.38;4.60;;;21.90;90.20;;;;;;4973615;28;20026;-75
2022/08/16 05:42:35;;;;;;;6.25;5.50;;;22.00;90.40;;;;;;4982284;28;20031;-75
2022/08/16 05:45:02;;;;;;;5.65;4.40;;;22.00;90.30;;;;;;4985509;28;20034;-76
2022/08/16 05:47:28;;;;;;;7.28;6.10;;;22.00;90.30;;;;;;4987382;28;20037;-75
2022/08/16 05:49:54;;;;;;;5.93;5.32;;;22.00;90.30;;;;;;4987875;28;20034;-75
2022/08/16 05:52:19;;;;;;;5.53;4.93;;;22.00;90.30;;;;;;4970089;28;20418;-75
2022/08/16 05:54:45;;;;;;;6.40;5.80;;;21.90;90.20;;;;;;4966914;28;20110;-75
2022/08/16 05:57:11;;;;;;;6.60;5.85;;;21.90;90.20;;;;;;4969829;28;20031;-76
2022/08/16 05:59:37;;;;;;;7.13;5.57;;;21.90;90.30;;;;;;4966860;28;20046;-76
2022/08/16 06:02:04;;;;;;;6.53;5.18;;;22.00;90.40;;;;;;4971212;28;20030;-76
2022/08/16 06:04:31;;;;;;;6.80;6.13;;;21.90;90.60;;;;;;4973092;28;20038;-76
2022/08/16 06:06:57;;;;;;;13.32;6.63;;;21.90;90.40;;;;;;4966330;28;20086;-76
2022/08/16 06:09:24;;;;;;;28.75;9.63;;;21.90;90.40;;;;;;4969537;28;20026;-76
2022/08/16 06:11:51;;;;;;;30.20;7.95;;;21.90;90.40;;;;;;4974276;28;20489;-76
2022/08/16 06:14:17;;;;;;;44.35;8.68;;;21.90;90.30;;;;;;4988623;28;20057;-77
2022/08/16 06:16:43;;;;;;;32.95;10.07;;;21.90;90.40;;;;;;4976197;28;20234;-76
2022/08/16 06:19:09;;;;;;;36.90;8.85;;;21.90;90.30;;;;;;4989068;28;20070;-75
2022/08/16 06:21:35;;;;;;;20.38;9.40;;;21.90;90.30;;;;;;4971488;28;20023;-76
2022/08/16 06:24:01;;;;;;;24.42;7.07;;;21.90;90.40;;;;;;4974153;28;20547;-76
2022/08/16 06:26:27;;;;;;;19.33;8.02;;;21.90;90.40;;;;;;4971991;28;20034;-76
2022/08/16 06:28:53;;;;;;;20.05;7.03;;;21.90;90.40;;;;;;4971067;28;20035;-76
2022/08/16 06:31:19;;;;;;;13.10;6.50;;;21.90;90.40;;;;;;4970994;28;20065;-76
2022/08/16 06:33:44;;;;;;;29.08;7.50;;;21.90;90.40;;;;;;4974986;28;20038;-76
2022/08/16 06:36:12;;;;;;;18.40;6.82;;;21.90;90.40;;;;;;4964979;28;20023;-76
2022/08/16 06:38:38;;;;;;;20.25;7.88;;;21.90;90.50;;;;;;4973030;28;20490;-76
2022/08/16 06:41:06;;;;;;;19.80;6.85;;;21.90;90.50;;;;;;4969950;28;20030;-76
2022/08/16 06:43:33;;;;;;;17.58;6.97;;;22.00;90.50;;;;;;4973691;28;20034;-76
2022/08/16 06:46:00;;;;;;;14.57;6.75;;;22.00;90.50;;;;;;4975073;28;20444;-76
2022/08/16 06:48:26;;;;;;;17.15;7.75;;;22.00;90.50;;;;;;4992127;28;20033;-76
2022/08/16 06:50:52;;;;;;;14.00;7.07;;;22.00;90.50;;;;;;4973628;28;20031;-75
2022/08/16 06:53:19;;;;;;;15.00;7.93;;;22.00;90.60;;;;;;4973422;28;20072;-76
2022/08/16 06:55:45;;;;;;;17.63;7.93;;;22.00;90.70;;;;;;4970037;28;20034;-75
2022/08/16 06:58:11;;;;;;;16.50;7.35;;;22.00;90.70;;;;;;4974751;28;20358;-76
2022/08/16 07:00:38;;;;;;;10.13;6.75;;;22.00;90.70;;;;;;4964491;28;20085;-76
2022/08/16 07:03:05;;;;;;;13.60;7.97;;;22.00;90.60;;;;;;4988566;28;20892;-76
2022/08/16 07:05:31;;;;;;;13.60;7.18;;;22.00;90.60;;;;;;4971554;28;20038;-76
2022/08/16 07:07:58;;;;;;;9.98;6.55;;;22.00;90.70;;;;;;4970086;28;20085;-76
2022/08/16 07:10:24;;;;;;;14.27;6.82;;;22.00;90.70;;;;;;4970341;28;20117;-76
2022/08/16 07:12:50;;;;;;;10.32;6.50;;;22.00;90.80;;;;;;4970956;28;20510;-75
2022/08/16 07:15:17;;;;;;;11.63;7.38;;;22.00;90.70;;;;;;4971635;28;20069;-76
2022/08/16 07:17:44;;;;;;;14.35;7.40;;;22.00;90.80;;;;;;4967907;28;20442;-76
2022/08/16 07:20:11;;;;;;;11.90;7.10;;;22.00;90.80;;;;;;4971125;28;20442;-76
2022/08/16 07:22:39;;;;;;;21.30;7.78;;;22.00;90.80;;;;;;4971418;28;20505;-76
2022/08/16 07:25:08;;;;;;;24.65;8.15;;;22.00;90.80;;;;;;4970624;28;20042;-76
2022/08/16 07:27:34;;;;;;;15.75;8.35;;;22.00;90.80;;;;;;4975544;28;20034;-76
2022/08/16 07:30:00;;;;;;;13.90;8.02;;;22.10;90.90;;;;;;4970600;28;20089;-76
2022/08/16 07:32:26;;;;;;;15.93;8.10;;;22.10;90.90;;;;;;4969847;28;20077;-76
2022/08/16 07:34:52;;;;;;;12.95;7.43;;;22.10;91.00;;;;;;4968691;28;20031;-76
2022/08/16 07:37:18;;;;;;;14.60;7.45;;;22.00;91.00;;;;;;4970633;28;20028;-75
2022/08/16 07:39:44;;;;;;;10.90;7.32;;;22.10;90.90;;;;;;4961808;28;20417;-76
2022/08/16 07:42:11;;;;;;;15.55;7.97;;;22.00;91.00;;;;;;4974698;28;20066;-76
2022/08/16 07:44:36;;;;;;;13.65;7.65;;;22.00;91.00;;;;;;4969403;28;20114;-76
2022/08/16 07:47:02;;;;;;;16.38;8.80;;;22.10;90.90;;;;;;4967409;28;20518;-76
2022/08/16 07:49:28;;;;;;;17.13;8.55;;;22.10;90.90;;;;;;4986327;28;20038;-76
2022/08/16 07:51:54;;;;;;;10.82;8.07;;;22.10;91.10;;;;;;4967658;28;20504;-76
2022/08/16 07:54:20;;;;;;;14.05;7.93;;;22.10;91.10;;;;;;4966441;28;20046;-75
2022/08/16 07:56:46;;;;;;;19.50;9.77;;;22.10;91.00;;;;;;4969918;28;20023;-76
2022/08/16 07:59:11;;;;;;;10.98;7.80;;;22.10;91.00;;;;;;4972027;28;20050;-76
2022/08/16 08:01:38;;;;;;;12.57;8.60;;;22.10;91.00;;;;;;4986594;28;20037;-76
2022/08/16 08:04:09;;;;;;;15.18;8.13;;;22.10;91.10;;;;;;4978679;28;20108;-76
2022/08/16 08:06:34;;;;;;;10.07;8.00;;;22.10;91.00;;;;;;4973968;28;20061;-76
2022/08/16 08:09:02;;;;;;;11.13;7.90;;;22.10;91.00;;;;;;4974297;28;20118;-76
2022/08/16 08:11:29;;;;;;;11.05;7.80;;;22.10;91.10;;;;;;4984885;28;20038;-76
2022/08/16 08:13:59;;;;;;;14.90;7.78;;;22.10;91.10;;;;;;4987161;28;20049;-76
2022/08/16 08:16:25;;;;;;;8.05;6.53;;;22.10;91.20;;;;;;4969325;28;20035;-75
2022/08/16 08:18:53;;;;;;;11.40;7.60;;;22.10;91.10;;;;;;4965534;28;20038;-75
2022/08/16 08:21:21;;;;;;;10.95;8.23;;;22.10;91.00;;;;;;4976274;28;20027;-75
2022/08/16 08:23:47;;;;;;;10.20;7.45;;;22.10;91.20;;;;;;4971607;28;20109;-77
2022/08/16 08:26:13;;;;;;;8.95;8.05;;;22.10;91.10;;;;;;4963985;28;20122;-76
2022/08/16 08:28:39;;;;;;;9.23;8.18;;;22.10;91.20;;;;;;4975606;28;20125;-76
2022/08/16 08:31:06;;;;;;;10.88;7.47;;;22.20;91.30;;;;;;4977087;28;20131;-77
2022/08/16 08:33:33;;;;;;;11.38;8.15;;;22.10;91.30;;;;;;4975367;28;20504;-76
2022/08/16 08:36:01;;;;;;;12.32;7.68;;;22.10;91.20;;;;;;4972068;28;20338;-76
2022/08/16 08:38:29;;;;;;;7.40;6.70;;;22.10;91.20;;;;;;4972061;28;20023;-76
2022/08/16 08:40:55;;;;;;;9.07;7.40;;;22.10;91.10;;;;;;4955771;28;20039;-76
2022/08/16 08:43:21;;;;;;;9.95;7.75;;;22.10;91.00;;;;;;4972561;28;20497;-76
2022/08/16 08:45:47;;;;;;;12.18;8.65;;;22.10;91.00;;;;;;4969381;28;20086;-76
2022/08/16 08:48:13;;;;;;;10.15;7.90;;;22.10;91.00;;;;;;4980156;28;20034;-76
2022/08/16 08:50:41;;;;;;;9.18;7.45;;;22.10;91.10;;;;;;4971978;28;20055;-76
2022/08/16 08:53:07;;;;;;;9.07;8.15;;;22.10;91.20;;;;;;4972461;28;20042;-76
2022/08/16 08:55:33;;;;;;;8.60;7.80;;;22.10;91.30;;;;;;4971497;28;20026;-76
2022/08/16 08:58:03;;;;;;;8.82;7.53;;;22.10;91.30;;;;;;4975468;28;20038;-76
2022/08/16 09:00:28;;;;;;;9.10;7.68;;;22.10;91.10;;;;;;4970327;28;20083;-76
2022/08/16 09:02:55;;;;;;;10.80;9.02;;;22.10;91.00;;;;;;4980326;28;20031;-76
2022/08/16 09:05:24;;;;;;;10.55;8.10;;;22.10;91.10;;;;;;4971003;28;20513;-76
2022/08/16 09:07:49;;;;;;;9.98;7.35;;;22.10;91.40;;;;;;4973252;28;20031;-76
2022/08/16 09:10:15;;;;;;;9.30;8.35;;;22.10;91.30;;;;;;4973052;28;20623;-76
2022/08/16 09:12:41;;;;;;;10.80;8.57;;;22.10;91.10;;;;;;4975633;28;20113;-76
2022/08/16 09:15:09;;;;;;;10.10;9.10;;;22.10;91.20;;;;;;4972775;28;20554;-75
2022/08/16 09:17:34;;;;;;;9.80;8.90;;;22.10;91.20;;;;;;4974952;28;20032;-76
2022/08/16 09:20:00;;;;;;;9.20;7.68;;;22.10;91.00;;;;;;4970750;28;20126;-76
2022/08/16 09:22:27;;;;;;;7.65;6.95;;;22.20;91.00;;;;;;4990083;28;20023;-76
2022/08/16 09:24:53;;;;;;;9.68;7.68;;;22.10;91.00;;;;;;4970662;28;20038;-76
2022/08/16 09:27:20;;;;;;;8.13;7.32;;;22.10;91.00;;;;;;4972244;28;20027;-76
2022/08/16 09:29:46;;;;;;;8.68;7.88;;;22.10;90.90;;;;;;4975327;28;20122;-76
2022/08/16 09:32:12;;;;;;;18.38;8.68;;;22.10;91.00;;;;;;4976532;28;20125;-76
2022/08/16 09:34:38;;;;;;;12.20;8.25;;;22.10;91.10;;;;;;4975810;28;20073;-76
2022/08/16 09:37:04;;;;;;;10.35;7.32;;;22.10;91.00;;;;;;4976522;28;20034;-76
2022/08/16 09:39:30;;;;;;;11.27;8.70;;;22.10;90.90;;;;;;4972742;28;20042;-76
2022/08/16 09:41:58;;;;;;;14.18;8.48;;;22.10;90.90;;;;;;4948538;28;20105;-76
2022/08/16 09:44:26;;;;;;;9.50;8.35;;;22.20;91.00;;;;;;4975819;28;20030;-76
2022/08/16 09:46:54;;;;;;;10.73;7.50;;;22.10;90.90;;;;;;4974788;28;20141;-75
2022/08/16 09:49:20;;;;;;;10.10;8.38;;;22.10;90.80;;;;;;4970417;28;20038;-76
2022/08/16 09:51:52;;;;;;;7.88;6.65;;;22.20;91.00;;;;;;4973103;28;20027;-76
2022/08/16 09:54:22;;;;;;;8.00;6.70;;;22.20;90.90;;;;;;4970789;28;20031;-76
2022/08/16 09:56:48;;;;;;;9.73;7.55;;;22.20;90.90;;;;;;4971874;28;20030;-76
2022/08/16 09:59:14;;;;;;;7.95;7.18;;;22.20;90.90;;;;;;4968406;28;20023;-76
2022/08/16 10:01:43;;;;;;;8.35;7.53;;;22.20;90.80;;;;;;4968814;28;20145;-76
2022/08/16 10:04:10;;;;;;;8.98;8.07;;;22.20;90.80;;;;;;4971724;28;20371;-75
2022/08/16 10:06:36;;;;;;;8.80;7.90;;;22.20;90.80;;;;;;4971487;28;20023;-76
2022/08/16 10:09:07;;;;;;;11.77;8.13;;;22.20;91.00;;;;;;4970565;28;20306;-76
2022/08/16 10:14:20;;;;;;;15.18;8.73;;;22.20;91.00;;;;;;4971524;28;20086;-76
2022/08/16 10:16:46;;;;;;;7.32;6.03;;;22.20;90.90;;;;;;4970144;28;20042;-76
2022/08/16 10:19:12;;;;;;;8.57;7.68;;;22.20;90.80;;;;;;4967844;28;20027;-76
2022/08/16 10:21:39;;;;;;;11.45;8.23;;;22.20;90.80;;;;;;4977723;28;20019;-76
2022/08/16 10:24:06;;;;;;;13.48;9.27;;;22.20;90.80;;;;;;4982856;28;20024;-76
2022/08/16 10:26:33;;;;;;;12.13;8.10;;;22.20;91.00;;;;;;4975219;28;20022;-76
2022/08/16 10:29:00;;;;;;;9.93;8.93;;;22.20;90.80;;;;;;4986332;28;20026;-76
2022/08/16 10:31:26;;;;;;;15.93;8.15;;;22.20;90.80;;;;;;4971697;28;20022;-76
2022/08/16 10:33:52;;;;;;;13.65;9.55;;;22.30;90.80;;;;;;4970477;28;20042;-76
2022/08/16 10:36:19;;;;;;;11.77;9.27;;;22.20;90.80;;;;;;4974301;28;20101;-76
2022/08/16 10:38:44;;;;;;;12.25;9.25;;;22.20;90.80;;;;;;4970211;28;20050;-76
2022/08/16 10:41:11;;;;;;;11.63;7.63;;;22.20;90.70;;;;;;4969191;28;20027;-76
2022/08/16 10:43:38;;;;;;;10.15;8.18;;;22.30;90.80;;;;;;4978391;28;20030;-76
2022/08/16 10:46:07;;;;;;;8.98;6.55;;;22.30;91.00;;;;;;4973693;28;20496;-76
2022/08/16 10:48:34;;;;;;;10.70;7.72;;;22.20;90.60;;;;;;4973129;28;20057;-76
2022/08/16 10:51:00;;;;;;;13.02;7.97;;;22.30;90.60;;;;;;4972372;28;20132;-76
2022/08/16 10:53:28;;;;;;;9.73;8.05;;;22.30;90.60;;;;;;4976979;28;20473;-76
2022/08/16 10:55:53;;;;;;;11.43;7.65;;;22.20;90.60;;;;;;4970892;28;20030;-76
2022/08/16 10:58:19;;;;;;;10.40;7.47;;;22.30;90.60;;;;;;4971311;28;20045;-76
2022/08/16 11:00:46;;;;;;;11.55;8.20;;;22.30;90.50;;;;;;4974358;28;20027;-76
2022/08/16 11:03:12;;;;;;;12.25;8.60;;;22.30;90.60;;;;;;4976321;28;20026;-76
2022/08/16 11:05:40;;;;;;;11.30;10.20;;;22.30;90.50;;;;;;4968978;28;20053;-76
2022/08/16 11:08:07;;;;;;;9.43;8.45;;;22.30;90.50;;;;;;4972496;28;20026;-76
2022/08/16 11:10:41;;;;;;;9.13;8.13;;;22.30;90.70;;;;;;4970607;28;20054;-76
2022/08/16 11:13:08;;;;;;;8.18;7.38;;;22.30;90.60;;;;;;4974916;28;20085;-76
2022/08/16 11:15:35;;;;;;;9.95;8.55;;;22.30;90.50;;;;;;4968492;28;20045;-76
2022/08/16 11:18:02;;;;;;;11.68;7.75;;;22.30;90.70;;;;;;4974471;28;20385;-76
2022/08/16 11:20:28;;;;;;;10.05;8.13;;;22.30;90.50;;;;;;4974894;28;20030;-76
2022/08/16 11:22:55;;;;;;;18.15;10.85;;;22.30;90.50;;;;;;4972504;28;20061;-76
2022/08/16 11:25:29;;;;;;;13.48;8.13;;;22.30;90.50;;;;;;4978888;28;20122;-76
2022/08/16 11:27:57;;;;;;;9.60;7.90;;;22.30;90.40;;;;;;4971156;28;20114;-76
2022/08/16 11:30:24;;;;;;;11.38;8.55;;;22.30;90.40;;;;;;4970741;28;20031;-76
2022/08/16 11:32:50;;;;;;;9.73;8.23;;;22.30;90.70;;;;;;4969679;28;20035;-76
2022/08/16 11:35:20;;;;;;;9.80;8.80;;;22.30;90.30;;;;;;4968079;28;20082;-76
2022/08/16 11:38:13;;;;;;;12.45;7.90;;;22.30;90.40;;;;;;4972525;28;20034;-76
2022/08/16 11:40:48;;;;;;;9.27;7.20;;;22.30;90.30;;;;;;4965457;28;20391;-76
2022/08/16 11:43:17;;;;;;;12.40;8.70;;;22.30;90.30;;;;;;4965765;28;20030;-76
2022/08/16 11:45:45;;;;;;;12.45;9.27;;;22.30;90.20;;;;;;4979473;28;20371;-76
2022/08/16 11:48:12;;;;;;;9.40;7.65;;;22.30;90.40;;;;;;4969669;28;20041;-76
2022/08/16 11:50:42;;;;;;;8.65;7.75;;;22.30;90.10;;;;;;4969506;28;20039;-76
2022/08/16 11:53:07;;;;;;;9.20;7.93;;;22.40;90.10;;;;;;4974495;28;20031;-76
2022/08/16 11:55:34;;;;;;;8.18;7.35;;;22.30;90.40;;;;;;4970280;28;20037;-76
2022/08/16 11:58:01;;;;;;;9.85;8.23;;;22.40;90.10;;;;;;4975053;28;20026;-77
2022/08/16 12:00:29;;;;;;;10.30;8.77;;;22.40;90.10;;;;;;4971622;28;20031;-76
2022/08/16 12:02:55;;;;;;;12.85;8.73;;;22.40;90.10;;;;;;4971149;28;20023;-76
2022/08/16 12:05:22;;;;;;;12.02;7.70;;;22.40;90.10;;;;;;4971495;28;20507;-76
2022/08/16 12:07:48;;;;;;;10.35;7.75;;;22.40;90.10;;;;;;4977442;28;20712;-76
2022/08/16 12:10:17;;;;;;;11.30;8.50;;;22.40;90.10;;;;;;4969705;28;20473;-76
2022/08/16 12:12:44;;;;;;;13.68;7.70;;;22.40;90.10;;;;;;4968344;28;20030;-76
2022/08/16 12:15:11;;;;;;;8.95;7.90;;;22.40;90.10;;;;;;4968091;28;20207;-76
2022/08/16 12:17:37;;;;;;;8.98;7.75;;;22.40;90.10;;;;;;4978182;28;20027;-76
2022/08/16 12:20:25;;;;;;;8.00;7.20;;;22.40;90.10;;;;;;4979004;28;20397;-76
2022/08/16 12:22:52;;;;;;;9.73;8.13;;;22.40;90.00;;;;;;4971951;28;20031;-76
2022/08/16 12:25:20;;;;;;;9.50;8.10;;;22.40;90.00;;;;;;4981478;28;20061;-76
2022/08/16 12:27:47;;;;;;;10.27;8.55;;;22.40;89.90;;;;;;4971148;28;20035;-76
2022/08/16 12:30:17;;;;;;;8.85;7.30;;;22.40;89.90;;;;;;4977280;28;20034;-77
2022/08/16 12:32:43;;;;;;;8.57;6.72;;;22.50;89.20;;;;;;4976709;28;20417;-76
2022/08/16 12:35:13;;;;;;;13.50;8.88;;;22.70;87.50;;;;;;4988382;28;20495;-76
2022/08/16 12:37:40;;;;;;;12.05;9.38;;;22.80;87.10;;;;;;4972490;28;20026;-76
2022/08/16 12:40:09;;;;;;;9.82;8.80;;;22.80;87.20;;;;;;4980105;28;20030;-76
2022/08/16 12:42:35;;;;;;;11.07;9.40;;;22.80;87.50;;;;;;4974694;28;20030;-76
2022/08/16 12:45:09;;;;;;;12.85;9.57;;;22.80;87.60;;;;;;4968442;28;20027;-76
2022/08/16 12:50:19;;;;;;;14.48;10.82;;;22.70;88.10;;;;;;4971587;28;20038;-76